Hercules — WDI7674 — position and weather

sailwx.info

Track history (hours):
 
Tides and Currents Weather Stations Pressure Air Temp Water Temp Dewpoint Dewpoint Depression Visibility Wind Speed Wind Dir Waves Ship Positions

Hercules

Owner: P&L Towing and Transportation, Inc., Southwest Ranches, FL. More information available from US FCC via Universal Licensing System and Coast Guard Vessel Documentation Center.

Last reported at 2017-Oct-22 12:00 UTC. Time now 2017-Oct-22 12:14 UTC.
Position N 39°23' W 074°25'.

Length 20 m; draft 2.5 m.

Type: Towing. MMSI: 367080670.

Date/timePositionNaut miles runAvg speedWind from/ knotsBaromVisibWave heightAir tempDewpointWater temp
2017-Oct-22 12:00N 39°23' W 074°25'1 2.7
2017-Oct-22 11:31N 39°24' W 074°26'0 0.2
2017-Oct-22 11:00N 39°24' W 074°26'0 0.0
2017-Oct-22 10:30N 39°24' W 074°26'0 0.0
2017-Oct-22 10:01N 39°24' W 074°26'1 2.6
2017-Oct-22 09:30N 39°22' W 074°26'0 0.0
2017-Oct-22 09:00N 39°22' W 074°26'0 0.0
2017-Oct-22 08:30N 39°22' W 074°26'0 0.0
2017-Oct-22 08:00N 39°22' W 074°26'0 0.0
2017-Oct-22 07:31N 39°22' W 074°26'0 0.0
2017-Oct-22 07:01N 39°22' W 074°26'0 0.0
2017-Oct-22 06:30N 39°22' W 074°26'0 0.0
2017-Oct-22 06:01N 39°22' W 074°26'0 0.0
2017-Oct-22 05:30N 39°22' W 074°26'0 0.0
2017-Oct-22 05:00N 39°22' W 074°26'0 0.0
2017-Oct-22 04:30N 39°22' W 074°26'0 0.0
2017-Oct-22 04:01N 39°22' W 074°26'0 0.0
2017-Oct-22 03:30N 39°22' W 074°26'0 0.0
2017-Oct-22 03:00N 39°22' W 074°26'0 0.0
2017-Oct-22 02:30N 39°22' W 074°26'0 0.0
2017-Oct-22 02:00N 39°22' W 074°26'0 0.0
2017-Oct-22 01:30N 39°22' W 074°26'0 0.0
2017-Oct-22 01:00N 39°22' W 074°26'0 0.0
2017-Oct-22 00:30N 39°22' W 074°26'0 0.0
2017-Oct-21 23:58N 39°22' W 074°26'0 0.0
2017-Oct-21 23:26N 39°22' W 074°26'0 0.0
2017-Oct-21 22:56N 39°22' W 074°26'0 0.0
2017-Oct-21 21:58N 39°22' W 074°26'1 0.2
2017-Oct-21 14:52N 39°21' W 074°26'0 0.2
2017-Oct-21 14:00N 39°21' W 074°25'0 0.2
2017-Oct-21 13:29N 39°21' W 074°25'0 0.4
2017-Oct-21 13:00N 39°21' W 074°25'2 2.9
2017-Oct-21 12:29N 39°23' W 074°25'1 1.7
2017-Oct-21 11:46N 39°24' W 074°26'0 1.0
2017-Oct-21 11:27N 39°24' W 074°26'7 0.3
2017-Oct-20 14:12N 39°18' W 074°30'5 5.7
2017-Oct-20 13:18N 39°21' W 074°25'0 0.2
2017-Oct-20 13:00N 39°21' W 074°25'2 1.2
2017-Oct-20 11:19N 39°23' W 074°25'1 2.1
2017-Oct-20 11:00N 39°24' W 074°26'0 0.0
2017-Oct-20 10:31N 39°24' W 074°26'0 0.0
2017-Oct-20 10:01N 39°24' W 074°26'0 0.0
2017-Oct-20 09:30N 39°24' W 074°26'0 0.0
2017-Oct-20 09:00N 39°24' W 074°26'0 0.0
2017-Oct-20 08:30N 39°24' W 074°26'0 0.0
2017-Oct-20 08:00N 39°24' W 074°26'0 0.0
2017-Oct-20 07:30N 39°24' W 074°26'0 0.0
2017-Oct-20 07:00N 39°24' W 074°26'0 0.0
2017-Oct-20 06:30N 39°24' W 074°26'0 0.0
2017-Oct-20 06:00N 39°24' W 074°26'0 0.0
2017-Oct-20 05:30N 39°24' W 074°26'0 0.0
2017-Oct-20 05:00N 39°24' W 074°26'0 0.0
2017-Oct-20 04:30N 39°24' W 074°26'0 0.0
2017-Oct-20 04:00N 39°24' W 074°26'0 0.0
2017-Oct-20 03:30N 39°24' W 074°26'0 0.0
2017-Oct-20 03:00N 39°24' W 074°26'0 0.0
2017-Oct-20 02:30N 39°24' W 074°26'5 0.4
2017-Oct-19 14:28N 39°19' W 074°28'3 4.5
2017-Oct-19 13:52N 39°21' W 074°25'0 0.4
2017-Oct-19 13:29N 39°21' W 074°25'0 0.4
2017-Oct-19 12:49N 39°21' W 074°25'0 0.8
2017-Oct-19 12:29N 39°21' W 074°25'0 0.4
2017-Oct-19 12:00N 39°21' W 074°25'1 1.2
2017-Oct-19 11:30N 39°22' W 074°24'2 3.1
2017-Oct-19 11:00N 39°23' W 074°25'1 1.9
2017-Oct-19 10:30N 39°24' W 074°26'0 0.2
2017-Oct-19 10:00N 39°24' W 074°26'0 0.0
2017-Oct-19 09:30N 39°24' W 074°26'0 0.0
2017-Oct-19 09:00N 39°24' W 074°26'0 0.0
2017-Oct-19 08:30N 39°24' W 074°26'0 0.0
2017-Oct-19 08:00N 39°24' W 074°26'0 0.0
2017-Oct-19 07:30N 39°24' W 074°26'0 0.0
2017-Oct-19 07:00N 39°24' W 074°26'0 0.0
2017-Oct-19 06:30N 39°24' W 074°26'0 0.0
2017-Oct-19 06:00N 39°24' W 074°26'0 0.0
2017-Oct-19 05:30N 39°24' W 074°26'0 0.0
2017-Oct-19 05:00N 39°24' W 074°26'0 0.0
2017-Oct-19 04:30N 39°24' W 074°26'0 0.0
2017-Oct-19 03:57N 39°24' W 074°26'0 0.0
2017-Oct-19 03:30N 39°24' W 074°26'0 0.0
2017-Oct-19 03:00N 39°24' W 074°26'0 0.0
2017-Oct-19 02:31N 39°24' W 074°26'0 0.0
2017-Oct-19 02:00N 39°24' W 074°26'0 0.0
2017-Oct-19 00:25N 39°24' W 074°26'3 0.3
2017-Oct-18 14:44N 39°21' W 074°25'0 0.1
2017-Oct-18 14:00N 39°21' W 074°25'1 1.3
2017-Oct-18 13:30N 39°21' W 074°26'0 0.2
2017-Oct-18 13:00N 39°21' W 074°26'0 0.2
2017-Oct-18 12:30N 39°21' W 074°26'0 0.2
2017-Oct-18 12:00N 39°21' W 074°26'0 0.2
2017-Oct-18 11:30N 39°21' W 074°26'1 2.8
2017-Oct-18 11:00N 39°22' W 074°24'2 4.4
2017-Oct-18 10:30N 39°24' W 074°26'0 0.3
2017-Oct-18 10:00N 39°24' W 074°26'0 0.0
2017-Oct-18 09:30N 39°24' W 074°26'0 0.0
2017-Oct-18 09:00N 39°24' W 074°26'0 0.0
2017-Oct-18 08:30N 39°24' W 074°26'0 0.0
2017-Oct-18 08:00N 39°24' W 074°26'0 0.0
2017-Oct-18 07:19N 39°24' W 074°26'0 0.0
2017-Oct-18 06:50N 39°24' W 074°26'0 0.0
2017-Oct-18 06:19N 39°24' W 074°26'0 0.0
2017-Oct-18 06:00N 39°24' W 074°26'0 0.0
2017-Oct-18 05:26N 39°24' W 074°26'0 0.0
2017-Oct-18 05:00N 39°24' W 074°26'0 0.0
2017-Oct-18 03:07N 39°24' W 074°26'0 0.0
2017-Oct-18 01:07N 39°24' W 074°26'0 0.0
2017-Oct-18 00:43N 39°24' W 074°26'0 0.0
2017-Oct-15 23:35N 39°24' W 074°26'0 0.0
2017-Oct-15 23:24N 39°24' W 074°26'6 0.6
2017-Oct-15 13:26N 39°19' W 074°28'0 0.0
2017-Oct-15 12:59N 39°19' W 074°28'6 0.6
2017-Oct-15 03:35N 39°24' W 074°26'0 0.0
2017-Oct-15 03:29N 39°24' W 074°26'0 0.0
2017-Oct-15 02:56N 39°24' W 074°26'0 0.0
2017-Oct-15 01:04N 39°24' W 074°26'0 0.0
2017-Oct-15 00:50N 39°24' W 074°26'0 0.0
2017-Oct-14 23:59N 39°24' W 074°26'0 0.0
2017-Oct-14 23:30N 39°24' W 074°26'0 0.0
2017-Oct-13 06:04N 39°24' W 074°26'0 0.0
2017-Oct-13 05:45N 39°24' W 074°26'  
Track history (hours):
 
Tides and Currents Weather Stations Pressure Air Temp Water Temp Dewpoint Dewpoint Depression Visibility Wind Speed Wind Dir Waves Ship Positions

Hercules

Owner: P&L Towing and Transportation, Inc., Southwest Ranches, FL. More information available from US FCC via Universal Licensing System and Coast Guard Vessel Documentation Center.

Last reported at 2017-Oct-22 12:00 UTC. Time now 2017-Oct-22 12:14 UTC.
Position N 39°23' W 074°25'.

Length 20 m; draft 2.5 m.

Type: Towing. MMSI: 367080670.

Date/timePositionNaut miles runAvg speedWind from/ knotsBaromVisibWave heightAir tempDewpointWater temp
2017-Oct-22 12:00N 39°23' W 074°25'1 2.7
2017-Oct-22 11:31N 39°24' W 074°26'0 0.2
2017-Oct-22 11:00N 39°24' W 074°26'0 0.0
2017-Oct-22 10:30N 39°24' W 074°26'0 0.0
2017-Oct-22 10:01N 39°24' W 074°26'1 2.6
2017-Oct-22 09:30N 39°22' W 074°26'0 0.0
2017-Oct-22 09:00N 39°22' W 074°26'0 0.0
2017-Oct-22 08:30N 39°22' W 074°26'0 0.0
2017-Oct-22 08:00N 39°22' W 074°26'0 0.0
2017-Oct-22 07:31N 39°22' W 074°26'0 0.0
2017-Oct-22 07:01N 39°22' W 074°26'0 0.0
2017-Oct-22 06:30N 39°22' W 074°26'0 0.0
2017-Oct-22 06:01N 39°22' W 074°26'0 0.0
2017-Oct-22 05:30N 39°22' W 074°26'0 0.0
2017-Oct-22 05:00N 39°22' W 074°26'0 0.0
2017-Oct-22 04:30N 39°22' W 074°26'0 0.0
2017-Oct-22 04:01N 39°22' W 074°26'0 0.0
2017-Oct-22 03:30N 39°22' W 074°26'0 0.0
2017-Oct-22 03:00N 39°22' W 074°26'0 0.0
2017-Oct-22 02:30N 39°22' W 074°26'0 0.0
2017-Oct-22 02:00N 39°22' W 074°26'0 0.0
2017-Oct-22 01:30N 39°22' W 074°26'0 0.0
2017-Oct-22 01:00N 39°22' W 074°26'0 0.0
2017-Oct-22 00:30N 39°22' W 074°26'0 0.0
2017-Oct-21 23:58N 39°22' W 074°26'0 0.0
2017-Oct-21 23:26N 39°22' W 074°26'0 0.0
2017-Oct-21 22:56N 39°22' W 074°26'0 0.0
2017-Oct-21 21:58N 39°22' W 074°26'1 0.2
2017-Oct-21 14:52N 39°21' W 074°26'0 0.2
2017-Oct-21 14:00N 39°21' W 074°25'0 0.2
2017-Oct-21 13:29N 39°21' W 074°25'0 0.4
2017-Oct-21 13:00N 39°21' W 074°25'2 2.9
2017-Oct-21 12:29N 39°23' W 074°25'1 1.7
2017-Oct-21 11:46N 39°24' W 074°26'0 1.0
2017-Oct-21 11:27N 39°24' W 074°26'7 0.3
2017-Oct-20 14:12N 39°18' W 074°30'5 5.7
2017-Oct-20 13:18N 39°21' W 074°25'0 0.2
2017-Oct-20 13:00N 39°21' W 074°25'2 1.2
2017-Oct-20 11:19N 39°23' W 074°25'1 2.1
2017-Oct-20 11:00N 39°24' W 074°26'0 0.0
2017-Oct-20 10:31N 39°24' W 074°26'0 0.0
2017-Oct-20 10:01N 39°24' W 074°26'0 0.0
2017-Oct-20 09:30N 39°24' W 074°26'0 0.0
2017-Oct-20 09:00N 39°24' W 074°26'0 0.0
2017-Oct-20 08:30N 39°24' W 074°26'0 0.0
2017-Oct-20 08:00N 39°24' W 074°26'0 0.0
2017-Oct-20 07:30N 39°24' W 074°26'0 0.0
2017-Oct-20 07:00N 39°24' W 074°26'0 0.0
2017-Oct-20 06:30N 39°24' W 074°26'0 0.0
2017-Oct-20 06:00N 39°24' W 074°26'0 0.0
2017-Oct-20 05:30N 39°24' W 074°26'0 0.0
2017-Oct-20 05:00N 39°24' W 074°26'0 0.0
2017-Oct-20 04:30N 39°24' W 074°26'0 0.0
2017-Oct-20 04:00N 39°24' W 074°26'0 0.0
2017-Oct-20 03:30N 39°24' W 074°26'0 0.0
2017-Oct-20 03:00N 39°24' W 074°26'0 0.0
2017-Oct-20 02:30N 39°24' W 074°26'5 0.4
2017-Oct-19 14:28N 39°19' W 074°28'3 4.5
2017-Oct-19 13:52N 39°21' W 074°25'0 0.4
2017-Oct-19 13:29N 39°21' W 074°25'0 0.4
2017-Oct-19 12:49N 39°21' W 074°25'0 0.8
2017-Oct-19 12:29N 39°21' W 074°25'0 0.4
2017-Oct-19 12:00N 39°21' W 074°25'1 1.2
2017-Oct-19 11:30N 39°22' W 074°24'2 3.1
2017-Oct-19 11:00N 39°23' W 074°25'1 1.9
2017-Oct-19 10:30N 39°24' W 074°26'0 0.2
2017-Oct-19 10:00N 39°24' W 074°26'0 0.0
2017-Oct-19 09:30N 39°24' W 074°26'0 0.0
2017-Oct-19 09:00N 39°24' W 074°26'0 0.0
2017-Oct-19 08:30N 39°24' W 074°26'0 0.0
2017-Oct-19 08:00N 39°24' W 074°26'0 0.0
2017-Oct-19 07:30N 39°24' W 074°26'0 0.0
2017-Oct-19 07:00N 39°24' W 074°26'0 0.0
2017-Oct-19 06:30N 39°24' W 074°26'0 0.0
2017-Oct-19 06:00N 39°24' W 074°26'0 0.0
2017-Oct-19 05:30N 39°24' W 074°26'0 0.0
2017-Oct-19 05:00N 39°24' W 074°26'0 0.0
2017-Oct-19 04:30N 39°24' W 074°26'0 0.0
2017-Oct-19 03:57N 39°24' W 074°26'0 0.0
2017-Oct-19 03:30N 39°24' W 074°26'0 0.0
2017-Oct-19 03:00N 39°24' W 074°26'0 0.0
2017-Oct-19 02:31N 39°24' W 074°26'0 0.0
2017-Oct-19 02:00N 39°24' W 074°26'0 0.0
2017-Oct-19 00:25N 39°24' W 074°26'3 0.3
2017-Oct-18 14:44N 39°21' W 074°25'0 0.1
2017-Oct-18 14:00N 39°21' W 074°25'1 1.3
2017-Oct-18 13:30N 39°21' W 074°26'0 0.2
2017-Oct-18 13:00N 39°21' W 074°26'0 0.2
2017-Oct-18 12:30N 39°21' W 074°26'0 0.2
2017-Oct-18 12:00N 39°21' W 074°26'0 0.2
2017-Oct-18 11:30N 39°21' W 074°26'1 2.8
2017-Oct-18 11:00N 39°22' W 074°24'2 4.4
2017-Oct-18 10:30N 39°24' W 074°26'0 0.3
2017-Oct-18 10:00N 39°24' W 074°26'0 0.0
2017-Oct-18 09:30N 39°24' W 074°26'0 0.0
2017-Oct-18 09:00N 39°24' W 074°26'0 0.0
2017-Oct-18 08:30N 39°24' W 074°26'0 0.0
2017-Oct-18 08:00N 39°24' W 074°26'0 0.0
2017-Oct-18 07:19N 39°24' W 074°26'0 0.0
2017-Oct-18 06:50N 39°24' W 074°26'0 0.0
2017-Oct-18 06:19N 39°24' W 074°26'0 0.0
2017-Oct-18 06:00N 39°24' W 074°26'0 0.0
2017-Oct-18 05:26N 39°24' W 074°26'0 0.0
2017-Oct-18 05:00N 39°24' W 074°26'0 0.0
2017-Oct-18 03:07N 39°24' W 074°26'0 0.0
2017-Oct-18 01:07N 39°24' W 074°26'0 0.0
2017-Oct-18 00:43N 39°24' W 074°26'0 0.0
2017-Oct-15 23:35N 39°24' W 074°26'0 0.0
2017-Oct-15 23:24N 39°24' W 074°26'6 0.6
2017-Oct-15 13:26N 39°19' W 074°28'0 0.0
2017-Oct-15 12:59N 39°19' W 074°28'6 0.6
2017-Oct-15 03:35N 39°24' W 074°26'0 0.0
2017-Oct-15 03:29N 39°24' W 074°26'0 0.0
2017-Oct-15 02:56N 39°24' W 074°26'0 0.0
2017-Oct-15 01:04N 39°24' W 074°26'0 0.0
2017-Oct-15 00:50N 39°24' W 074°26'0 0.0
2017-Oct-14 23:59N 39°24' W 074°26'0 0.0
2017-Oct-14 23:30N 39°24' W 074°26'0 0.0
2017-Oct-13 06:04N 39°24' W 074°26'0 0.0
2017-Oct-13 05:45N 39°24' W 074°26'  

Dump ship's entire track history